createdAt,value
2018-04-17T00:00:14.912Z,80.60
2018-04-17T00:02:46.113Z,80.60
2018-04-17T00:05:17.863Z,80.30
2018-04-17T00:07:49.042Z,80.80
2018-04-17T00:10:20.292Z,80.80
2018-04-17T00:12:51.488Z,80.20
2018-04-17T00:15:23.476Z,81.40
2018-04-17T00:17:54.750Z,80.60
2018-04-17T00:20:25.989Z,80.10
2018-04-17T00:22:57.267Z,80.90
2018-04-17T00:25:28.485Z,80.90
2018-04-17T00:27:59.653Z,81.50
2018-04-17T00:30:30.874Z,82.30
2018-04-17T00:33:02.134Z,82.20
2018-04-17T00:35:34.124Z,82.20
2018-04-17T00:38:05.340Z,82.20
2018-04-17T00:40:36.554Z,82.30
2018-04-17T00:43:07.754Z,81.90
2018-04-17T00:45:39.770Z,82.70
2018-04-17T00:48:10.953Z,82.60
2018-04-17T00:50:43.182Z,82.30
2018-04-17T00:53:26.727Z,82.30
2018-04-17T00:55:57.939Z,82.00
2018-04-17T00:58:29.213Z,82.00
2018-04-17T01:01:00.465Z,82.30
2018-04-17T01:03:31.651Z,82.20
2018-04-17T01:06:02.879Z,82.30
2018-04-17T01:08:34.889Z,82.60
2018-04-17T01:11:06.306Z,82.60
2018-04-17T01:13:37.500Z,82.60
2018-04-17T01:16:08.724Z,82.70
2018-04-17T01:18:40.138Z,83.00
2018-04-17T01:21:11.391Z,82.80
2018-04-17T01:23:42.601Z,83.90
2018-04-17T01:26:13.846Z,83.90
2018-04-17T01:28:45.834Z,83.40
2018-04-17T01:31:17.051Z,83.10
2018-04-17T01:33:48.303Z,83.50
2018-04-17T01:36:20.228Z,83.20
2018-04-17T01:38:51.641Z,83.10
2018-04-17T01:41:22.843Z,82.90
2018-04-17T01:43:54.064Z,83.00
2018-04-17T01:46:25.311Z,83.30
2018-04-17T01:48:56.545Z,83.30
2018-04-17T01:51:27.763Z,83.50
2018-04-17T01:53:58.954Z,84.10
2018-04-17T01:56:30.178Z,84.00
2018-04-17T01:59:01.470Z,84.20
2018-04-17T02:01:33.434Z,84.00
2018-04-17T02:04:04.621Z,84.00
2018-04-17T02:06:35.845Z,84.50
2018-04-17T02:09:07.067Z,84.20
2018-04-17T02:11:38.996Z,84.30
2018-04-17T02:14:10.235Z,84.20
2018-04-17T02:16:41.491Z,84.20
2018-04-17T02:19:13.535Z,85.10
2018-04-17T02:21:44.781Z,84.40
2018-04-17T02:24:16.189Z,84.30
2018-04-17T02:26:47.380Z,84.10
2018-04-17T02:29:18.901Z,84.10
2018-04-17T02:31:50.075Z,84.10
2018-04-17T02:34:21.312Z,83.70
2018-04-17T02:36:53.039Z,83.50
2018-04-17T02:39:24.404Z,83.70
2018-04-17T02:41:55.590Z,83.60
2018-04-17T02:44:26.965Z,83.30
2018-04-17T02:46:58.159Z,83.80
2018-04-17T02:49:29.361Z,83.70
2018-04-17T02:52:00.572Z,83.60
2018-04-17T02:54:31.832Z,83.60
2018-04-17T02:57:03.078Z,84.00
2018-04-17T02:59:34.389Z,83.90
2018-04-17T03:02:05.630Z,84.10
2018-04-17T03:04:37.604Z,83.80
2018-04-17T03:07:09.543Z,84.20
2018-04-17T03:09:40.733Z,84.00
2018-04-17T03:12:11.973Z,84.20
2018-04-17T03:14:43.215Z,84.10
2018-04-17T03:17:14.432Z,83.80
2018-04-17T03:19:45.716Z,84.60
2018-04-17T03:22:16.932Z,83.80
2018-04-17T03:24:48.139Z,84.10
2018-04-17T03:27:19.349Z,84.10
2018-04-17T03:29:50.547Z,84.00
2018-04-17T03:32:21.792Z,84.00
2018-04-17T03:34:52.977Z,84.40
2018-04-17T03:37:24.648Z,84.20
2018-04-17T03:39:55.861Z,84.40
2018-04-17T03:42:27.133Z,84.50
2018-04-17T03:44:58.373Z,84.80
2018-04-17T03:47:29.612Z,84.90
2018-04-17T03:50:00.881Z,84.40
2018-04-17T03:52:32.051Z,84.70
2018-04-17T03:55:04.277Z,84.60
2018-04-17T03:57:35.473Z,84.60
2018-04-17T04:00:07.527Z,85.30
2018-04-17T04:02:39.545Z,85.40
2018-04-17T04:05:10.926Z,84.50
2018-04-17T04:07:42.081Z,84.80
2018-04-17T04:10:13.311Z,84.60
2018-04-17T04:12:45.252Z,84.40
2018-04-17T04:15:18.053Z,84.30
2018-04-17T04:18:01.662Z,84.20
2018-04-17T04:20:45.416Z,83.80
2018-04-17T04:23:29.142Z,83.60
2018-04-17T04:26:12.733Z,83.70
2018-04-17T04:28:44.677Z,83.60
2018-04-17T04:31:15.874Z,83.60
2018-04-17T04:33:47.117Z,83.50
2018-04-17T04:36:18.451Z,83.30
2018-04-17T04:38:49.619Z,83.50
2018-04-17T04:41:22.093Z,83.60
2018-04-17T04:43:53.466Z,83.50
2018-04-17T04:46:24.871Z,83.80
2018-04-17T04:48:56.048Z,83.90
2018-04-17T04:51:28.017Z,83.60
2018-04-17T04:53:59.428Z,83.60
2018-04-17T04:56:30.600Z,83.40
2018-04-17T04:59:01.837Z,83.70
2018-04-17T05:01:33.148Z,84.20
2018-04-17T05:04:04.434Z,83.80
2018-04-17T05:06:35.662Z,83.90
2018-04-17T05:09:06.905Z,84.70
2018-04-17T05:11:38.078Z,84.60
2018-04-17T05:14:09.313Z,84.60
2018-04-17T05:16:40.542Z,84.60
2018-04-17T05:19:11.712Z,84.50
2018-04-17T05:21:42.949Z,84.80
2018-04-17T05:24:14.202Z,85.00
2018-04-17T05:26:46.182Z,84.70
2018-04-17T05:29:18.119Z,84.60
2018-04-17T05:31:49.358Z,84.50
2018-04-17T05:34:20.558Z,84.60
2018-04-17T05:36:51.792Z,84.70
2018-04-17T05:39:23.010Z,84.90
2018-04-17T05:41:54.298Z,84.90
2018-04-17T05:44:25.498Z,84.30
2018-04-17T05:46:56.722Z,84.30
2018-04-17T05:49:28.672Z,84.70
2018-04-17T05:52:00.649Z,84.20
2018-04-17T05:54:31.838Z,84.20
2018-04-17T05:57:03.078Z,84.40
2018-04-17T05:59:34.301Z,84.40
2018-04-17T06:02:05.648Z,84.30
2018-04-17T06:04:37.622Z,84.10
2018-04-17T06:07:08.843Z,84.20
2018-04-17T06:09:40.054Z,84.30
2018-04-17T06:12:11.422Z,84.30
2018-04-17T06:14:42.612Z,84.40
2018-04-17T06:17:14.062Z,84.00
2018-04-17T06:19:45.277Z,83.60
2018-04-17T06:22:17.322Z,83.20
2018-04-17T06:24:48.535Z,83.10
2018-04-17T06:27:19.756Z,82.90
2018-04-17T06:29:50.974Z,82.60
2018-04-17T06:32:22.355Z,82.30
2018-04-17T06:34:53.598Z,82.50
2018-04-17T06:37:24.846Z,82.60
2018-04-17T06:39:56.074Z,82.40
2018-04-17T06:42:27.368Z,81.60
2018-04-17T06:44:58.635Z,81.50
2018-04-17T06:47:29.894Z,81.00
2018-04-17T06:50:01.375Z,80.90
2018-04-17T06:52:33.159Z,80.80
2018-04-17T06:55:05.229Z,80.70
2018-04-17T06:57:36.426Z,80.50
2018-04-17T07:00:07.674Z,80.70
2018-04-17T07:02:39.070Z,80.90
2018-04-17T07:05:10.372Z,80.90
2018-04-17T07:07:41.613Z,80.80
2018-04-17T07:10:12.919Z,80.70
2018-04-17T07:12:44.153Z,80.20
2018-04-17T07:15:15.436Z,80.00
2018-04-17T07:17:47.423Z,79.20
2018-04-17T07:20:18.742Z,79.20
2018-04-17T07:22:51.463Z,95.30
2018-04-17T07:25:22.710Z,99.90
2018-04-17T07:27:53.926Z,77.90
2018-04-17T07:30:25.154Z,77.80
2018-04-17T07:32:56.397Z,77.00
2018-04-17T07:35:27.659Z,75.70
2018-04-17T07:37:58.873Z,74.90
2018-04-17T07:40:30.927Z,74.40
2018-04-17T07:43:02.208Z,74.30
2018-04-17T07:45:33.686Z,73.60
2018-04-17T07:48:22.034Z,72.90
2018-04-17T07:50:54.006Z,69.80
2018-04-17T07:53:25.218Z,69.80
2018-04-17T07:55:56.588Z,69.80
2018-04-17T07:58:27.849Z,69.60
2018-04-17T08:00:59.084Z,69.40
2018-04-17T08:03:30.342Z,68.00
2018-04-17T08:06:01.527Z,66.40
2018-04-17T08:08:32.788Z,63.10
2018-04-17T08:11:05.451Z,65.20
2018-04-17T08:13:36.686Z,64.80
2018-04-17T08:16:08.590Z,64.40
2018-04-17T08:18:39.805Z,64.40
2018-04-17T08:21:11.005Z,65.00
2018-04-17T08:23:43.079Z,60.40
2018-04-17T08:26:15.038Z,59.60
2018-04-17T08:28:46.278Z,59.40
2018-04-17T08:31:18.226Z,57.70
2018-04-17T08:33:49.482Z,57.70
2018-04-17T08:36:20.729Z,57.80
2018-04-17T08:38:52.721Z,54.20
2018-04-17T08:41:23.992Z,54.20
2018-04-17T08:43:55.222Z,52.80
2018-04-17T08:46:26.449Z,52.10
2018-04-17T08:48:57.696Z,52.40
2018-04-17T08:51:28.938Z,53.00
2018-04-17T08:54:00.163Z,53.10
2018-04-17T08:56:32.134Z,53.70
2018-04-17T08:59:03.400Z,54.20
2018-04-17T09:01:35.562Z,52.70
2018-04-17T09:04:06.942Z,52.70
2018-04-17T09:06:39.159Z,52.30
2018-04-17T09:09:10.479Z,52.30
2018-04-17T09:11:41.812Z,51.70
2018-04-17T09:14:13.105Z,52.70
2018-04-17T09:16:44.345Z,52.30
2018-04-17T09:19:15.816Z,51.70
2018-04-17T09:21:47.395Z,76.50
2018-04-17T09:24:18.753Z,71.80
2018-04-17T09:26:49.969Z,51.90
2018-04-17T09:29:21.306Z,51.50
2018-04-17T09:31:52.508Z,51.30
2018-04-17T09:34:23.750Z,49.90
2018-04-17T09:36:55.014Z,48.30
2018-04-17T09:39:26.957Z,47.40
2018-04-17T09:41:58.355Z,47.30
2018-04-17T09:44:29.625Z,47.40
2018-04-17T09:47:00.910Z,47.90
2018-04-17T09:49:32.882Z,47.70
2018-04-17T09:52:04.096Z,47.70
2018-04-17T09:54:35.333Z,48.00
2018-04-17T09:57:06.517Z,47.30
2018-04-17T09:59:38.598Z,47.60
2018-04-17T10:02:09.839Z,47.40
2018-04-17T10:04:41.056Z,47.30
2018-04-17T10:07:13.098Z,46.70
2018-04-17T10:09:44.365Z,46.40
2018-04-17T10:12:16.746Z,47.30
2018-04-17T10:14:48.649Z,49.40
2018-04-17T10:17:19.889Z,70.70
2018-04-17T10:19:51.523Z,47.50
2018-04-17T10:22:22.718Z,49.90
2018-04-17T10:24:54.245Z,48.20
2018-04-17T10:27:25.471Z,47.90
2018-04-17T10:29:57.422Z,46.90
2018-04-17T10:32:28.809Z,46.90
2018-04-17T10:35:00.154Z,46.90
2018-04-17T10:37:31.349Z,46.70
2018-04-17T10:40:03.358Z,47.20
2018-04-17T10:42:34.578Z,47.10
2018-04-17T10:45:05.853Z,47.10
2018-04-17T10:47:37.180Z,46.90
2018-04-17T10:50:08.415Z,46.60
2018-04-17T10:52:39.617Z,46.40
2018-04-17T10:55:11.577Z,47.20
2018-04-17T10:57:43.590Z,47.30
2018-04-17T11:00:14.787Z,47.30
2018-04-17T11:02:46.762Z,47.90
2018-04-17T11:05:18.046Z,47.60
2018-04-17T11:07:49.284Z,48.30
2018-04-17T11:10:20.546Z,47.30
2018-04-17T11:12:51.969Z,47.80
2018-04-17T11:15:23.358Z,48.10
2018-04-17T11:17:54.587Z,47.20
2018-04-17T11:20:26.575Z,44.90
2018-04-17T11:22:58.536Z,44.50
2018-04-17T11:25:29.910Z,44.40
2018-04-17T11:28:01.154Z,44.30
2018-04-17T11:30:32.617Z,44.30
2018-04-17T11:33:04.645Z,44.60
2018-04-17T11:35:35.878Z,44.60
2018-04-17T11:38:07.095Z,44.80
2018-04-17T11:40:38.386Z,44.50
2018-04-17T11:43:10.329Z,44.90
2018-04-17T11:45:41.578Z,44.90
2018-04-17T11:48:12.811Z,45.50
2018-04-17T11:50:44.817Z,46.40
2018-04-17T11:53:16.014Z,46.70
2018-04-17T11:55:48.155Z,46.70
2018-04-17T11:58:19.411Z,46.40
2018-04-17T12:00:50.657Z,46.40
2018-04-17T12:03:21.882Z,68.10
2018-04-17T12:05:53.097Z,46.80
2018-04-17T12:08:24.445Z,46.70
2018-04-17T12:10:56.374Z,46.60
2018-04-17T12:13:27.889Z,47.20
2018-04-17T12:15:59.894Z,46.50
2018-04-17T12:18:31.097Z,46.40
2018-04-17T12:21:02.313Z,46.60
2018-04-17T12:23:34.914Z,59.80
2018-04-17T12:26:06.139Z,51.70
2018-04-17T12:28:37.405Z,64.50
2018-04-17T12:31:08.634Z,55.40
2018-04-17T12:33:39.812Z,47.00
2018-04-17T12:36:11.055Z,46.20
2018-04-17T12:38:42.695Z,46.40
2018-04-17T12:41:13.909Z,46.40
2018-04-17T12:43:45.192Z,45.50
2018-04-17T12:46:16.437Z,45.20
2018-04-17T12:48:48.177Z,45.40
2018-04-17T12:51:19.409Z,47.10
2018-04-17T12:53:51.033Z,45.90
2018-04-17T12:56:22.449Z,45.80
2018-04-17T12:58:53.791Z,46.00
2018-04-17T13:01:25.012Z,45.50
2018-04-17T13:03:56.272Z,45.00
2018-04-17T13:06:28.436Z,45.30
2018-04-17T13:09:00.869Z,45.50
2018-04-17T13:11:33.174Z,46.00
2018-04-17T13:14:04.545Z,46.10
2018-04-17T13:16:35.901Z,46.50
2018-04-17T13:19:07.179Z,46.40
2018-04-17T13:21:38.500Z,46.30
2018-04-17T13:24:10.521Z,45.30
2018-04-17T13:26:41.987Z,45.20
2018-04-17T13:29:14.017Z,46.00
2018-04-17T13:31:45.222Z,46.00
2018-04-17T13:34:17.217Z,45.50
2018-04-17T13:36:48.409Z,45.40
2018-04-17T13:39:19.819Z,45.10
2018-04-17T13:41:51.081Z,45.30
2018-04-17T13:44:22.300Z,44.80
2018-04-17T13:46:53.587Z,44.70
2018-04-17T13:49:24.831Z,45.10
2018-04-17T13:51:56.857Z,44.60
2018-04-17T13:54:28.076Z,44.60
2018-04-17T13:56:59.283Z,44.10
2018-04-17T13:59:30.536Z,43.90
2018-04-17T14:02:02.573Z,43.00
2018-04-17T14:04:33.814Z,42.90
2018-04-17T14:07:05.421Z,42.70
2018-04-17T14:09:36.755Z,42.90
2018-04-17T14:12:08.007Z,43.10
2018-04-17T14:14:39.228Z,43.80
2018-04-17T14:17:10.479Z,43.80
2018-04-17T14:19:42.512Z,44.80
2018-04-17T14:22:13.704Z,44.20
2018-04-17T14:24:45.887Z,43.40
2018-04-17T14:27:17.222Z,43.40
2018-04-17T14:29:49.158Z,42.70
2018-04-17T14:32:21.849Z,43.20
2018-04-17T14:34:53.841Z,43.80
2018-04-17T14:37:25.107Z,43.80
2018-04-17T14:39:56.554Z,43.90
2018-04-17T14:42:27.806Z,44.30
2018-04-17T14:44:59.068Z,44.70
2018-04-17T14:47:30.377Z,44.50
2018-04-17T14:50:01.656Z,44.80
2018-04-17T14:52:32.883Z,44.60
2018-04-17T14:55:04.160Z,44.70
2018-04-17T14:57:36.199Z,44.20
2018-04-17T15:00:07.467Z,44.20
2018-04-17T15:02:39.906Z,44.70
2018-04-17T15:05:11.887Z,45.10
2018-04-17T15:07:43.243Z,45.10
2018-04-17T15:10:14.532Z,44.90
2018-04-17T15:12:45.822Z,45.20
2018-04-17T15:15:17.197Z,45.30
2018-04-17T15:17:49.203Z,45.10
2018-04-17T15:20:20.469Z,45.10
2018-04-17T15:22:51.697Z,44.90
2018-04-17T15:25:22.953Z,45.10
2018-04-17T15:27:54.274Z,44.80
2018-04-17T15:30:25.847Z,44.80
2018-04-17T15:32:57.047Z,44.90
2018-04-17T15:35:28.453Z,45.10
2018-04-17T15:37:59.687Z,44.80
2018-04-17T15:40:31.142Z,45.30
2018-04-17T15:43:02.354Z,45.00
2018-04-17T15:45:33.553Z,45.50
2018-04-17T15:48:05.898Z,45.60
2018-04-17T15:50:37.245Z,45.60
2018-04-17T15:53:09.330Z,46.10
2018-04-17T15:55:40.672Z,46.00
2018-04-17T15:58:12.034Z,46.00
2018-04-17T16:00:44.132Z,46.50
2018-04-17T16:03:15.503Z,46.40
2018-04-17T16:05:46.860Z,45.70
2018-04-17T16:08:18.889Z,45.00
2018-04-17T16:10:50.163Z,45.00
2018-04-17T16:13:21.437Z,46.00
2018-04-17T16:15:53.630Z,45.70
2018-04-17T16:18:25.854Z,45.80
2018-04-17T16:20:57.147Z,45.80
2018-04-17T16:23:28.422Z,46.00
2018-04-17T16:26:01.915Z,46.20
2018-04-17T16:28:33.790Z,46.30
2018-04-17T16:31:05.068Z,46.20
2018-04-17T16:33:36.367Z,46.00
2018-04-17T16:36:07.739Z,46.40
2018-04-17T16:38:38.953Z,46.20
2018-04-17T16:41:10.174Z,46.40
2018-04-17T16:43:41.535Z,46.20
2018-04-17T16:46:12.853Z,46.20
2018-04-17T16:48:44.142Z,45.90
2018-04-17T16:51:15.324Z,46.20
2018-04-17T16:53:47.374Z,46.40
2018-04-17T16:56:18.568Z,46.40
2018-04-17T16:58:49.797Z,46.40
2018-04-17T17:01:21.074Z,46.50
2018-04-17T17:03:52.368Z,47.10
2018-04-17T17:06:23.587Z,46.60
2018-04-17T17:08:54.889Z,46.90
2018-04-17T17:11:26.160Z,46.60
2018-04-17T17:13:57.371Z,46.90
2018-04-17T17:16:28.892Z,46.90
2018-04-17T17:19:00.178Z,46.80
2018-04-17T17:21:31.567Z,47.10
2018-04-17T17:24:02.911Z,47.20
2018-04-17T17:26:35.489Z,47.20
2018-04-17T17:29:06.681Z,47.60
2018-04-17T17:31:37.900Z,47.70
2018-04-17T17:34:09.386Z,47.80
2018-04-17T17:36:42.745Z,48.00
2018-04-17T17:39:13.941Z,47.70
2018-04-17T17:41:47.238Z,47.90
2018-04-17T17:44:18.610Z,47.90
2018-04-17T17:46:49.847Z,47.90
2018-04-17T17:49:21.446Z,48.00
2018-04-17T17:51:52.825Z,48.40
2018-04-17T17:54:24.023Z,48.40
2018-04-17T17:56:55.342Z,48.40
2018-04-17T17:59:26.661Z,48.80
2018-04-17T18:01:57.914Z,48.70
2018-04-17T18:04:29.163Z,48.80
2018-04-17T18:07:01.193Z,54.40
2018-04-17T18:09:33.173Z,62.30
2018-04-17T18:12:05.563Z,48.70
2018-04-17T18:32:32.759Z,51.30
2018-04-17T18:35:03.973Z,50.40
2018-04-17T18:37:35.980Z,51.60
2018-04-17T18:40:07.222Z,51.50
2018-04-17T18:42:38.550Z,52.00
2018-04-17T18:45:09.854Z,52.20
2018-04-17T18:47:41.065Z,52.40
2018-04-17T18:50:12.993Z,53.70
2018-04-17T18:52:44.208Z,53.70
2018-04-17T18:55:15.485Z,53.90
2018-04-17T18:57:46.666Z,53.90
2018-04-17T19:00:18.641Z,55.50
2018-04-17T19:02:49.857Z,54.80
2018-04-17T19:05:21.909Z,55.10
2018-04-17T19:07:53.103Z,55.10
2018-04-17T19:10:24.357Z,55.50
2018-04-17T19:12:55.602Z,55.50
2018-04-17T19:15:26.802Z,55.90
2018-04-17T19:17:58.067Z,56.40
2018-04-17T19:20:30.007Z,56.30
2018-04-17T19:23:02.143Z,57.00
2018-04-17T19:25:33.438Z,56.20
2018-04-17T19:28:04.669Z,56.60
2018-04-17T19:30:35.906Z,56.90
2018-04-17T19:33:07.901Z,57.40
2018-04-17T19:35:39.872Z,57.10
2018-04-17T19:38:11.075Z,57.10
2018-04-17T19:40:42.408Z,57.80
2018-04-17T19:43:13.661Z,57.80
2018-04-17T19:45:45.006Z,57.60
2018-04-17T19:48:16.992Z,58.00
2018-04-17T19:50:48.251Z,57.90
2018-04-17T19:53:19.502Z,58.20
2018-04-17T19:55:50.689Z,58.30
2018-04-17T19:58:21.913Z,58.50
2018-04-17T20:00:53.118Z,59.30
2018-04-17T20:03:24.380Z,58.50
2018-04-17T20:05:56.653Z,59.00
2018-04-17T20:08:28.083Z,59.00
2018-04-17T20:10:59.340Z,59.00
2018-04-17T20:13:30.590Z,59.30
2018-04-17T20:16:01.807Z,59.40
2018-04-17T20:18:33.053Z,59.80
2018-04-17T20:21:04.291Z,60.10
2018-04-17T20:23:35.506Z,60.50
2018-04-17T20:26:07.476Z,61.20
2018-04-17T20:28:39.453Z,61.20
2018-04-17T20:31:11.447Z,61.10
2018-04-17T20:33:42.687Z,61.00
2018-04-17T20:36:13.917Z,61.30
2018-04-17T20:38:45.134Z,61.70
2018-04-17T20:41:17.102Z,62.00
2018-04-17T20:43:49.185Z,62.30
2018-04-17T20:46:21.910Z,62.30
2018-04-17T20:48:53.122Z,62.70
2018-04-17T20:51:24.339Z,62.90
2018-04-17T20:53:55.570Z,63.40
2018-04-17T20:56:27.538Z,63.40
2018-04-17T20:58:59.479Z,64.10
2018-04-17T21:01:31.484Z,64.20
2018-04-17T21:04:02.744Z,64.20
2018-04-17T21:06:34.612Z,64.20
2018-04-17T21:09:06.618Z,64.60
2018-04-17T21:11:38.577Z,64.40
2018-04-17T21:14:10.618Z,65.00
2018-04-17T21:16:41.915Z,64.90
2018-04-17T21:19:13.149Z,64.90
2018-04-17T21:21:44.372Z,65.40
2018-04-17T21:24:16.318Z,86.60
2018-04-17T21:26:48.405Z,66.70
2018-04-17T21:29:20.959Z,65.80
2018-04-17T21:31:52.146Z,66.40
2018-04-17T21:34:23.396Z,66.50
2018-04-17T21:36:55.703Z,66.90
2018-04-17T21:39:27.091Z,67.10
2018-04-17T21:41:58.338Z,67.50
2018-04-17T21:44:29.558Z,67.80
2018-04-17T21:47:00.855Z,67.80
2018-04-17T21:49:32.101Z,67.70
2018-04-17T21:52:03.296Z,67.60
2018-04-17T21:54:34.509Z,67.80
2018-04-17T21:57:05.694Z,67.90
2018-04-17T21:59:37.666Z,68.50
2018-04-17T22:02:08.936Z,68.50
2018-04-17T22:04:40.148Z,68.70
2018-04-17T22:07:11.407Z,68.70
2018-04-17T22:09:42.683Z,69.00
2018-04-17T22:12:13.934Z,74.20
2018-04-17T22:14:45.352Z,69.00
2018-04-17T22:17:16.585Z,69.00
2018-04-17T22:19:47.821Z,69.20
2018-04-17T22:22:19.839Z,69.60
2018-04-17T22:24:51.045Z,69.50
2018-04-17T22:27:23.441Z,69.30
2018-04-17T22:29:54.678Z,70.60
2018-04-17T22:32:25.989Z,70.90
2018-04-17T22:34:57.943Z,70.30
2018-04-17T22:37:29.880Z,70.20
2018-04-17T22:40:01.232Z,70.20
2018-04-17T22:42:32.446Z,69.60
2018-04-17T22:45:03.691Z,70.70
2018-04-17T22:47:34.903Z,71.00
2018-04-17T22:50:06.114Z,71.00
2018-04-17T22:52:37.334Z,71.60
2018-04-17T22:55:08.584Z,71.10
2018-04-17T22:57:39.762Z,71.40
2018-04-17T23:00:11.728Z,71.50
2018-04-17T23:02:43.645Z,71.40
2018-04-17T23:05:14.851Z,71.30
2018-04-17T23:07:46.075Z,71.30
2018-04-17T23:10:18.278Z,71.50
2018-04-17T23:12:49.446Z,71.40
2018-04-17T23:15:20.675Z,71.40
2018-04-17T23:17:51.885Z,71.30
2018-04-17T23:20:23.075Z,71.00
2018-04-17T23:22:54.330Z,70.80
2018-04-17T23:25:26.274Z,70.10
2018-04-17T23:27:57.470Z,70.10
2018-04-17T23:30:29.582Z,70.30
2018-04-17T23:33:00.797Z,70.20
2018-04-17T23:35:32.076Z,69.90
2018-04-17T23:38:03.303Z,69.60
2018-04-17T23:40:34.533Z,69.10
2018-04-17T23:43:05.723Z,68.60
2018-04-17T23:45:36.925Z,68.60
2018-04-17T23:48:16.805Z,68.50
2018-04-17T23:50:48.051Z,68.40
2018-04-17T23:53:19.294Z,68.50
2018-04-17T23:55:50.564Z,68.40
2018-04-17T23:58:22.470Z,68.50
